Time;durP1;ratioP1;P1;durP2;ratioP2;P2;SDS_P1;SDS_P2;PMS_P1;PMS_P2;Temp;Humidity;BMP_temperature;BMP_pressure;BME280_temperature;BME280_humidity;BME280_pressure;Samples;Min_cycle;Max_cycle;Signal;HPM_P1;HPM_P2
2021/04/28 00:01:56;;;;;;;7.47;3.63;;;8.80;66.60;;;;;;4954077;28;20027;-76
2021/04/28 00:04:23;;;;;;;6.65;3.53;;;8.70;67.00;;;;;;4957579;28;20054;-76
2021/04/28 00:06:49;;;;;;;6.65;3.70;;;8.70;67.20;;;;;;4988504;28;20031;-75
2021/04/28 00:09:15;;;;;;;5.70;3.92;;;8.70;67.60;;;;;;4962561;28;20042;-76
2021/04/28 00:11:41;;;;;;;9.30;4.03;;;8.60;68.30;;;;;;5006413;28;20035;-73
2021/04/28 00:14:08;;;;;;;8.15;3.80;;;8.60;68.30;;;;;;4953870;28;20031;-76
2021/04/28 00:16:34;;;;;;;11.70;3.97;;;8.60;68.50;;;;;;4948702;28;20039;-77
2021/04/28 00:19:00;;;;;;;6.82;4.35;;;8.50;68.50;;;;;;4947971;28;20030;-77
2021/04/28 00:21:27;;;;;;;8.55;4.55;;;8.50;68.90;;;;;;4971223;28;20012;-76
2021/04/28 00:23:54;;;;;;;9.88;4.00;;;8.50;68.90;;;;;;4969093;28;20034;-74
2021/04/28 00:26:22;;;;;;;4.80;3.90;;;8.40;69.30;;;;;;4981610;28;20027;-75
2021/04/28 00:28:51;;;;;;;8.40;3.80;;;8.30;69.60;;;;;;5006410;28;20019;-74
2021/04/28 00:31:20;;;;;;;8.93;4.78;;;8.40;69.80;;;;;;5010945;28;20094;-75
2021/04/28 00:33:49;;;;;;;5.90;4.15;;;8.30;70.50;;;;;;4967900;28;20023;-75
2021/04/28 00:36:18;;;;;;;13.00;4.07;;;8.30;70.30;;;;;;4964523;28;20070;-76
2021/04/28 00:38:45;;;;;;;9.77;3.55;;;8.20;71.10;;;;;;5006364;28;20043;-76
2021/04/28 00:41:11;;;;;;;6.38;3.70;;;8.30;70.80;;;;;;4981098;28;20047;-75
2021/04/28 00:43:38;;;;;;;14.05;4.47;;;8.30;71.20;;;;;;4961152;28;20046;-76
2021/04/28 00:46:05;;;;;;;9.50;4.63;;;8.30;70.60;;;;;;4961105;28;20031;-74
2021/04/28 00:48:32;;;;;;;6.05;4.25;;;8.10;71.60;;;;;;4969584;28;20016;-77
2021/04/28 00:50:57;;;;;;;7.18;4.53;;;8.00;72.30;;;;;;4952762;28;20028;-74
2021/04/28 00:53:24;;;;;;;7.28;4.20;;;7.90;72.70;;;;;;5020608;28;20040;-76
2021/04/28 00:55:51;;;;;;;15.10;4.53;;;7.90;73.70;;;;;;5021962;28;20106;-75
2021/04/28 00:58:21;;;;;;;8.40;4.55;;;7.80;74.90;;;;;;4962944;28;20024;-74
2021/04/28 01:00:49;;;;;;;11.55;4.45;;;7.80;75.30;;;;;;4962264;29;20055;-75
2021/04/28 01:03:19;;;;;;;7.18;4.13;;;7.80;75.20;;;;;;4962222;29;20062;-77
2021/04/28 01:05:44;;;;;;;6.70;4.47;;;7.70;76.40;;;;;;4957527;28;20487;-75
2021/04/28 01:08:14;;;;;;;4.78;3.92;;;7.60;76.60;;;;;;5023070;28;20091;-76
2021/04/28 01:10:40;;;;;;;8.95;4.18;;;7.70;77.00;;;;;;4950077;28;20150;-75
2021/04/28 01:13:06;;;;;;;11.90;4.50;;;7.70;77.80;;;;;;4954613;28;20050;-74
2021/04/28 01:15:33;;;;;;;6.30;3.92;;;7.60;78.50;;;;;;5021206;28;20023;-75
2021/04/28 01:18:01;;;;;;;8.48;4.03;;;7.50;79.10;;;;;;4943288;28;20435;-73
2021/04/28 01:20:31;;;;;;;7.38;4.28;;;7.50;79.80;;;;;;4957421;28;20105;-75
2021/04/28 01:22:56;;;;;;;7.90;4.75;;;7.40;80.30;;;;;;4944346;28;20024;-75
2021/04/28 01:25:25;;;;;;;9.07;4.22;;;7.40;81.90;;;;;;4966987;28;20047;-76
2021/04/28 01:28:06;;;;;;;10.63;4.40;;;7.40;83.20;;;;;;4951255;28;20036;-75
2021/04/28 01:30:44;;;;;;;9.70;4.93;;;7.30;83.30;;;;;;4945283;28;20101;-75
2021/04/28 01:33:15;;;;;;;12.45;4.50;;;7.30;83.10;;;;;;4944608;28;20027;-75
2021/04/28 01:35:43;;;;;;;6.57;4.38;;;7.30;83.20;;;;;;4963177;28;20436;-76
2021/04/28 01:38:09;;;;;;;5.95;4.85;;;7.30;84.10;;;;;;4960061;28;20471;-76
2021/04/28 01:40:36;;;;;;;9.48;4.70;;;7.20;84.80;;;;;;4964317;28;20058;-75
2021/04/28 01:43:02;;;;;;;9.48;4.45;;;7.20;85.30;;;;;;4945459;28;20038;-74
2021/04/28 01:45:33;;;;;;;8.60;4.45;;;7.20;85.60;;;;;;4946409;28;20024;-75
2021/04/28 01:48:02;;;;;;;13.43;4.57;;;7.30;86.00;;;;;;4943831;28;20035;-77
2021/04/28 01:50:28;;;;;;;6.20;3.90;;;7.20;86.70;;;;;;4950985;28;20035;-75
2021/04/28 01:52:55;;;;;;;7.78;4.13;;;7.20;87.80;;;;;;4946941;28;20027;-76
2021/04/28 01:55:20;;;;;;;4.88;4.35;;;7.20;88.40;;;;;;4938487;28;20024;-74
2021/04/28 01:57:47;;;;;;;6.53;4.43;;;7.20;89.10;;;;;;4944888;28;20031;-76
2021/04/28 02:00:17;;;;;;;11.40;5.03;;;7.20;89.20;;;;;;4948175;28;20094;-76
2021/04/28 02:02:43;;;;;;;10.52;4.55;;;7.20;89.60;;;;;;4948897;28;20035;-75
2021/04/28 02:05:09;;;;;;;7.28;4.35;;;7.20;89.30;;;;;;4953829;28;20526;-75
2021/04/28 02:07:35;;;;;;;5.90;4.20;;;7.10;90.30;;;;;;4985299;28;20514;-76
2021/04/28 02:10:05;;;;;;;6.53;4.35;;;7.10;90.40;;;;;;4973463;28;20019;-74
2021/04/28 02:12:31;;;;;;;6.55;4.03;;;7.10;90.40;;;;;;4972233;28;20102;-76
2021/04/28 02:14:59;;;;;;;8.05;4.78;;;7.00;90.60;;;;;;5007424;28;20713;-77
2021/04/28 02:17:26;;;;;;;5.82;4.63;;;7.00;90.90;;;;;;4941931;28;20027;-73
2021/04/28 02:19:52;;;;;;;9.20;4.78;;;6.90;91.30;;;;;;4939661;28;20028;-74
2021/04/28 02:22:19;;;;;;;9.63;5.28;;;6.90;91.50;;;;;;4945078;28;20027;-74
2021/04/28 02:24:47;;;;;;;5.32;4.03;;;6.90;91.90;;;;;;4953305;28;20179;-76
2021/04/28 02:27:12;;;;;;;7.85;4.38;;;6.90;92.10;;;;;;4963790;28;20061;-77
2021/04/28 02:29:38;;;;;;;13.95;4.55;;;6.90;92.20;;;;;;4933094;28;20039;-76
2021/04/28 02:32:05;;;;;;;8.05;4.80;;;6.80;92.20;;;;;;4948322;28;20028;-76
2021/04/28 02:34:30;;;;;;;9.43;4.97;;;6.80;92.60;;;;;;4971096;28;20035;-76
2021/04/28 02:36:57;;;;;;;5.93;4.43;;;6.80;92.90;;;;;;4955548;28;20091;-76
2021/04/28 02:39:31;;;;;;;8.27;5.32;;;6.80;92.90;;;;;;4941820;28;20041;-75
2021/04/28 02:41:57;;;;;;;8.27;5.32;;;6.70;93.40;;;;;;4952306;28;20070;-75
2021/04/28 02:44:25;;;;;;;11.80;5.60;;;6.70;93.60;;;;;;4958151;28;20027;-75
2021/04/28 02:46:57;;;;;;;5.68;4.72;;;6.70;94.00;;;;;;4958735;28;20039;-78
2021/04/28 02:49:23;;;;;;;8.55;5.75;;;6.60;94.50;;;;;;4969600;28;20053;-75
2021/04/28 02:51:54;;;;;;;7.85;5.00;;;6.60;95.10;;;;;;4955058;28;20019;-77
2021/04/28 02:54:20;;;;;;;8.98;5.03;;;6.50;95.40;;;;;;4948417;28;20722;-75
2021/04/28 02:56:49;;;;;;;8.73;5.22;;;6.60;95.40;;;;;;4955137;28;20038;-74
2021/04/28 02:59:17;;;;;;;7.72;5.25;;;6.50;95.60;;;;;;4966271;28;20031;-77
2021/04/28 03:01:44;;;;;;;9.98;5.47;;;6.60;95.60;;;;;;4965091;28;20027;-80
2021/04/28 03:04:10;;;;;;;8.02;5.00;;;6.60;95.90;;;;;;4988457;28;20037;-78
2021/04/28 03:06:36;;;;;;;8.50;5.22;;;6.60;95.90;;;;;;4979367;28;20027;-77
2021/04/28 03:09:04;;;;;;;7.68;5.05;;;6.50;96.20;;;;;;4992655;28;20012;-77
2021/04/28 03:11:30;;;;;;;7.45;5.32;;;6.50;96.60;;;;;;4966388;28;20083;-79
2021/04/28 03:13:56;;;;;;;8.55;5.13;;;6.40;96.50;;;;;;5003799;28;20013;-77
2021/04/28 03:16:23;;;;;;;10.00;5.43;;;6.40;96.90;;;;;;5068485;28;20017;-76
2021/04/28 03:19:11;;;;;;;8.45;5.47;;;6.40;97.10;;;;;;4975788;28;20039;-77
2021/04/28 03:21:42;;;;;;;7.82;5.25;;;6.30;97.60;;;;;;5029624;28;20032;-76
2021/04/28 03:24:09;;;;;;;7.32;5.20;;;6.20;97.90;;;;;;4982442;28;20031;-76
2021/04/28 03:26:35;;;;;;;7.50;5.10;;;6.20;97.90;;;;;;4971181;28;20574;-74
2021/04/28 03:29:02;;;;;;;13.60;5.85;;;6.20;98.10;;;;;;4967003;28;20054;-75
2021/04/28 03:31:34;;;;;;;8.07;5.40;;;6.20;98.30;;;;;;4955837;28;20027;-75
2021/04/28 03:34:02;;;;;;;11.10;6.05;;;6.20;98.60;;;;;;4954255;29;20078;-77
2021/04/28 03:36:28;;;;;;;8.35;5.65;;;6.20;98.30;;;;;;4961982;28;20020;-74
2021/04/28 03:38:54;;;;;;;11.63;5.93;;;6.20;98.10;;;;;;4963656;28;20056;-76
2021/04/28 03:41:21;;;;;;;9.55;5.53;;;6.20;98.40;;;;;;4957355;28;20031;-74
2021/04/28 03:43:47;;;;;;;10.57;5.63;;;6.20;98.50;;;;;;4951976;28;20133;-76
2021/04/28 03:46:13;;;;;;;11.70;5.50;;;6.10;98.80;;;;;;4950639;28;20024;-76
2021/04/28 03:48:38;;;;;;;7.72;4.93;;;6.10;99.00;;;;;;4978206;28;20077;-74
2021/04/28 03:51:04;;;;;;;9.45;5.07;;;6.10;98.90;;;;;;4961356;28;20047;-75
2021/04/28 03:53:30;;;;;;;9.32;5.32;;;6.10;98.80;;;;;;4967899;28;20402;-74
2021/04/28 03:55:56;;;;;;;12.52;5.00;;;6.10;98.40;;;;;;4956744;28;20072;-75
2021/04/28 03:58:21;;;;;;;8.07;5.13;;;6.10;98.30;;;;;;4960052;28;20024;-74
2021/04/28 04:00:47;;;;;;;8.60;5.05;;;6.00;98.60;;;;;;4959233;28;20038;-76
2021/04/28 04:03:13;;;;;;;12.82;5.20;;;6.00;98.60;;;;;;4956309;28;20067;-78
2021/04/28 04:05:38;;;;;;;15.90;5.85;;;6.00;98.80;;;;;;4965118;28;20027;-74
2021/04/28 04:08:05;;;;;;;15.13;5.47;;;6.00;99.20;;;;;;4971083;28;20039;-77
2021/04/28 04:10:32;;;;;;;9.27;5.13;;;5.90;99.20;;;;;;4963287;28;20030;-74
2021/04/28 04:13:07;;;;;;;12.63;5.70;;;5.90;99.30;;;;;;4972517;28;20027;-75
2021/04/28 04:15:33;;;;;;;8.35;5.30;;;5.90;99.20;;;;;;4952725;28;20039;-75
2021/04/28 04:17:58;;;;;;;9.98;5.25;;;5.90;99.60;;;;;;4965295;28;20031;-77
2021/04/28 04:20:26;;;;;;;11.40;5.35;;;5.80;99.90;;;;;;4956684;28;20072;-77
2021/04/28 04:22:52;;;;;;;10.02;5.57;;;5.90;99.90;;;;;;4969381;28;20046;-75
2021/04/28 04:25:17;;;;;;;8.05;5.30;;;5.80;99.90;;;;;;4952906;28;20070;-77
2021/04/28 04:27:44;;;;;;;10.90;5.35;;;5.80;99.90;;;;;;4971804;28;20249;-78
2021/04/28 04:30:13;;;;;;;13.02;5.07;;;5.80;99.90;;;;;;4998445;28;20035;-77
2021/04/28 04:32:39;;;;;;;10.15;4.88;;;5.80;99.90;;;;;;4970940;28;20031;-74
2021/04/28 04:35:07;;;;;;;8.02;4.75;;;5.80;99.90;;;;;;4950961;28;20055;-75
2021/04/28 04:37:41;;;;;;;6.63;4.57;;;5.80;99.80;;;;;;4998298;28;20184;-75
2021/04/28 04:40:13;;;;;;;8.95;5.18;;;5.80;99.90;;;;;;4966227;28;20110;-76
2021/04/28 04:42:39;;;;;;;9.38;5.85;;;5.80;99.90;;;;;;4951509;28;20034;-73
2021/04/28 04:45:06;;;;;;;12.48;5.80;;;5.80;99.90;;;;;;4957937;28;20047;-74
2021/04/28 04:47:33;;;;;;;10.23;5.25;;;5.70;99.90;;;;;;4958265;28;20031;-75
2021/04/28 04:49:58;;;;;;;8.65;5.45;;;5.80;99.90;;;;;;4953078;28;20034;-76
2021/04/28 04:52:24;;;;;;;7.85;5.50;;;5.80;99.90;;;;;;4946573;28;20016;-74
2021/04/28 04:54:50;;;;;;;11.75;5.95;;;5.80;99.90;;;;;;4954719;29;20035;-75
2021/04/28 04:57:16;;;;;;;10.10;5.32;;;5.70;99.90;;;;;;4979575;28;20024;-73
2021/04/28 04:59:42;;;;;;;10.88;6.43;;;5.70;99.90;;;;;;4952137;29;20039;-73
2021/04/28 05:02:07;;;;;;;11.88;4.82;;;5.80;99.90;;;;;;4941353;28;20027;-73
2021/04/28 05:04:33;;;;;;;9.60;6.18;;;5.90;99.90;;;;;;4949066;29;20027;-75
2021/04/28 05:07:00;;;;;;;12.38;6.03;;;5.90;99.90;;;;;;4953602;29;20045;-76
2021/04/28 05:09:25;;;;;;;10.63;6.50;;;5.90;99.90;;;;;;4951232;29;20030;-75
2021/04/28 05:11:52;;;;;;;10.43;5.63;;;5.80;99.90;;;;;;4950224;28;20033;-73
2021/04/28 05:14:18;;;;;;;13.77;5.95;;;5.80;99.90;;;;;;4946762;28;20068;-75
2021/04/28 05:16:45;;;;;;;9.13;5.85;;;5.80;99.90;;;;;;4944801;28;20031;-75
2021/04/28 05:19:13;;;;;;;14.25;5.28;;;5.80;99.90;;;;;;4939945;28;20034;-70
2021/04/28 05:21:39;;;;;;;8.52;5.30;;;5.80;99.90;;;;;;4942593;28;20036;-74
2021/04/28 05:24:05;;;;;;;10.55;5.55;;;5.70;99.90;;;;;;4947810;28;20050;-74
2021/04/28 05:26:30;;;;;;;12.60;7.20;;;5.80;99.90;;;;;;4945957;28;20062;-73
2021/04/28 05:28:56;;;;;;;8.98;5.85;;;5.80;99.90;;;;;;4983922;28;20023;-73
2021/04/28 05:31:22;;;;;;;12.07;5.70;;;5.90;99.90;;;;;;4961989;28;20023;-73
2021/04/28 05:33:48;;;;;;;10.73;5.53;;;6.10;99.90;;;;;;4944878;28;20062;-74
2021/04/28 05:36:14;;;;;;;13.38;5.38;;;6.10;99.70;;;;;;4944330;28;20047;-74
2021/04/28 05:38:41;;;;;;;7.35;5.20;;;6.20;99.40;;;;;;4951300;28;20081;-74
2021/04/28 05:41:07;;;;;;;10.68;5.20;;;6.20;99.90;;;;;;4953875;28;20027;-75
2021/04/28 05:43:33;;;;;;;11.70;5.53;;;6.30;99.40;;;;;;4941159;28;20046;-74
2021/04/28 05:46:01;;;;;;;8.40;5.05;;;6.30;99.10;;;;;;4954608;28;20573;-73
2021/04/28 05:48:27;;;;;;;13.73;5.20;;;6.30;99.20;;;;;;4962194;28;20043;-72
2021/04/28 05:50:54;;;;;;;6.82;5.35;;;6.30;99.20;;;;;;4953100;28;20734;-74
2021/04/28 05:53:20;;;;;;;12.70;5.45;;;6.40;98.80;;;;;;4952121;28;20027;-75
2021/04/28 05:55:46;;;;;;;14.90;5.97;;;6.30;99.00;;;;;;4955273;28;20523;-72
2021/04/28 05:58:11;;;;;;;12.98;5.32;;;6.30;99.10;;;;;;4951629;28;20032;-73
2021/04/28 06:00:38;;;;;;;9.40;6.25;;;6.30;99.30;;;;;;4952729;28;20027;-75
2021/04/28 06:03:05;;;;;;;9.05;5.75;;;6.10;99.60;;;;;;4951688;28;20019;-76
2021/04/28 06:05:31;;;;;;;11.07;6.03;;;6.00;99.90;;;;;;4950867;28;20529;-75
2021/04/28 06:07:57;;;;;;;11.13;6.38;;;6.10;99.90;;;;;;4950262;28;20027;-73
2021/04/28 06:10:22;;;;;;;8.73;5.65;;;6.00;99.90;;;;;;4949811;28;20027;-74
2021/04/28 06:12:48;;;;;;;14.82;5.65;;;6.00;99.90;;;;;;4945352;28;20027;-75
2021/04/28 06:15:17;;;;;;;11.98;6.28;;;6.20;99.90;;;;;;4950710;28;20008;-74
2021/04/28 06:17:44;;;;;;;8.57;5.72;;;6.30;99.70;;;;;;4942783;28;20031;-73
2021/04/28 06:20:12;;;;;;;12.70;6.25;;;6.40;99.90;;;;;;4943668;28;20471;-77
2021/04/28 06:22:37;;;;;;;10.23;6.20;;;6.60;98.80;;;;;;4934186;28;20085;-75
2021/04/28 06:25:04;;;;;;;12.30;5.95;;;6.80;98.50;;;;;;4947085;28;20043;-74
2021/04/28 06:27:29;;;;;;;9.00;5.63;;;6.80;98.40;;;;;;4944081;28;20031;-76
2021/04/28 06:29:55;;;;;;;10.02;5.93;;;6.80;98.10;;;;;;4936503;28;20080;-75
2021/04/28 06:32:21;;;;;;;7.93;5.75;;;6.70;98.50;;;;;;4935814;28;20507;-74
2021/04/28 06:34:46;;;;;;;13.60;6.15;;;6.80;98.60;;;;;;4980444;28;20013;-78
2021/04/28 06:37:12;;;;;;;15.18;7.32;;;6.80;98.90;;;;;;4979905;28;20073;-77
2021/04/28 06:39:38;;;;;;;11.43;6.30;;;7.00;98.70;;;;;;4960723;28;20054;-74
2021/04/28 06:42:03;;;;;;;11.65;5.85;;;6.80;98.10;;;;;;4947651;28;20119;-75
2021/04/28 06:44:29;;;;;;;7.32;4.95;;;6.90;98.60;;;;;;4950516;28;20019;-75
2021/04/28 06:46:56;;;;;;;12.32;6.13;;;7.10;98.00;;;;;;5010975;28;20029;-74
2021/04/28 06:49:23;;;;;;;10.10;5.65;;;7.00;98.60;;;;;;4950504;28;20023;-75
2021/04/28 06:51:48;;;;;;;10.85;6.22;;;7.20;98.60;;;;;;4952257;28;20047;-73
2021/04/28 06:54:14;;;;;;;9.45;5.78;;;7.30;98.20;;;;;;4949979;28;20057;-76
2021/04/28 06:56:41;;;;;;;12.13;5.50;;;7.40;97.90;;;;;;4951129;28;20023;-74
2021/04/28 06:59:17;;;;;;;10.75;5.80;;;7.50;98.00;;;;;;4984177;28;20016;-75
2021/04/28 07:01:48;;;;;;;15.10;5.72;;;7.50;97.90;;;;;;4968025;28;20133;-75
2021/04/28 07:04:15;;;;;;;15.23;6.05;;;7.70;98.10;;;;;;4964096;28;20012;-76
2021/04/28 07:06:41;;;;;;;8.07;5.45;;;7.60;97.80;;;;;;4957125;28;20032;-76
2021/04/28 07:09:08;;;;;;;10.65;5.68;;;7.70;98.30;;;;;;4950493;28;20020;-75
2021/04/28 07:11:33;;;;;;;12.43;6.10;;;7.90;98.00;;;;;;4923516;28;20055;-74
2021/04/28 07:13:59;;;;;;;10.98;6.20;;;8.00;97.60;;;;;;4953476;28;20023;-74
2021/04/28 07:16:25;;;;;;;12.30;6.07;;;8.10;97.20;;;;;;4955625;28;20427;-75
2021/04/28 07:18:51;;;;;;;11.85;6.03;;;8.20;96.90;;;;;;4938737;28;20031;-75
2021/04/28 07:21:18;;;;;;;13.73;6.60;;;8.40;96.50;;;;;;4953294;28;20461;-76
2021/04/28 07:23:43;;;;;;;9.38;6.45;;;8.60;96.90;;;;;;4965705;28;20092;-76
2021/04/28 07:26:09;;;;;;;9.32;6.50;;;8.50;96.30;;;;;;4962647;28;20028;-73
2021/04/28 07:28:36;;;;;;;12.57;6.65;;;8.50;96.40;;;;;;4960582;28;20054;-77
2021/04/28 07:31:03;;;;;;;13.30;5.75;;;8.60;95.80;;;;;;4950699;28;20036;-75
2021/04/28 07:33:28;;;;;;;8.68;5.90;;;8.60;95.50;;;;;;4977066;28;20086;-75
2021/04/28 07:35:54;;;;;;;8.45;5.95;;;8.60;95.80;;;;;;4956430;28;20031;-73
2021/04/28 07:38:20;;;;;;;8.50;5.85;;;8.70;95.90;;;;;;4955083;28;20030;-72
2021/04/28 07:40:48;;;;;;;9.48;5.88;;;8.60;96.30;;;;;;4979963;28;20058;-75
2021/04/28 07:43:14;;;;;;;14.88;6.55;;;8.60;96.40;;;;;;4958617;28;20027;-76
2021/04/28 07:45:43;;;;;;;7.13;5.80;;;8.70;96.20;;;;;;4947050;28;20141;-74
2021/04/28 07:48:11;;;;;;;15.07;6.28;;;8.90;95.50;;;;;;4954945;28;20027;-75
2021/04/28 07:50:38;;;;;;;8.50;6.13;;;8.90;95.70;;;;;;4960182;28;20297;-76
2021/04/28 07:53:04;;;;;;;10.65;5.85;;;9.00;95.10;;;;;;4956748;28;20088;-74
2021/04/28 07:55:30;;;;;;;12.48;6.60;;;9.00;95.60;;;;;;4957054;28;20023;-76
2021/04/28 07:57:57;;;;;;;14.85;6.85;;;9.10;95.00;;;;;;5004841;28;20033;-76
2021/04/28 08:00:23;;;;;;;12.40;7.32;;;9.20;94.60;;;;;;4953253;28;20220;-73
2021/04/28 08:02:50;;;;;;;10.07;6.35;;;9.40;94.20;;;;;;4956176;28;20038;-73
2021/04/28 08:05:15;;;;;;;8.27;6.75;;;9.50;94.50;;;;;;4952167;28;20027;-74
2021/04/28 08:07:41;;;;;;;11.65;7.20;;;9.60;94.50;;;;;;4944559;28;20588;-75
2021/04/28 08:10:08;;;;;;;10.07;7.15;;;9.70;94.50;;;;;;4946321;28;20027;-73
2021/04/28 08:12:34;;;;;;;13.30;6.95;;;9.60;95.50;;;;;;4928600;28;20188;-75
2021/04/28 08:15:00;;;;;;;12.98;7.82;;;9.70;93.70;;;;;;4954385;28;20039;-76
2021/04/28 08:17:28;;;;;;;11.52;7.70;;;9.80;93.10;;;;;;4966624;28;20046;-79
2021/04/28 08:19:54;;;;;;;15.23;9.38;;;9.80;94.20;;;;;;4968510;28;20039;-77
2021/04/28 08:22:20;;;;;;;14.20;9.65;;;10.00;94.60;;;;;;4946769;28;20027;-76
2021/04/28 08:24:45;;;;;;;13.48;8.10;;;10.20;95.00;;;;;;4947279;28;20063;-80
2021/04/28 08:27:17;;;;;;;10.95;6.93;;;10.40;94.00;;;;;;4962096;28;20015;-77
2021/04/28 08:29:42;;;;;;;9.30;7.32;;;10.40;92.60;;;;;;4960098;28;20065;-74
2021/04/28 08:32:08;;;;;;;11.52;6.68;;;10.40;92.50;;;;;;4956134;28;20035;-75
2021/04/28 08:34:34;;;;;;;11.82;6.85;;;10.70;92.10;;;;;;4978001;28;20403;-77
2021/04/28 08:37:07;;;;;;;9.57;6.57;;;10.90;91.60;;;;;;4961847;28;20026;-76
2021/04/28 08:39:36;;;;;;;12.45;6.30;;;11.20;90.20;;;;;;4976725;28;20046;-76
2021/04/28 08:42:01;;;;;;;11.23;7.15;;;11.30;90.50;;;;;;4969839;28;20051;-76
2021/04/28 08:44:30;;;;;;;17.52;7.57;;;11.20;90.80;;;;;;4989881;28;20099;-79
2021/04/28 08:47:03;;;;;;;14.68;7.10;;;11.00;91.70;;;;;;4967762;28;20028;-76
2021/04/28 08:49:29;;;;;;;11.70;6.43;;;10.90;92.30;;;;;;4977075;28;20095;-78
2021/04/28 08:51:55;;;;;;;15.32;6.50;;;11.00;91.50;;;;;;4990573;28;20077;-75
2021/04/28 08:54:22;;;;;;;14.95;6.72;;;11.10;92.20;;;;;;4991164;28;20075;-76
2021/04/28 08:56:54;;;;;;;11.75;6.80;;;11.10;90.70;;;;;;4980824;28;20024;-77
2021/04/28 08:59:22;;;;;;;14.98;7.03;;;11.10;91.20;;;;;;4954859;28;20023;-76
2021/04/28 09:01:49;;;;;;;23.60;7.47;;;11.10;89.80;;;;;;4965476;28;20028;-76
2021/04/28 09:04:19;;;;;;;13.98;7.00;;;11.10;88.80;;;;;;4980842;28;20027;-76
2021/04/28 09:06:46;;;;;;;9.85;6.55;;;11.20;89.10;;;;;;4944478;28;20027;-76
2021/04/28 09:09:14;;;;;;;14.80;6.88;;;11.10;90.00;;;;;;4958801;28;20016;-74
2021/04/28 09:11:45;;;;;;;15.80;7.47;;;11.10;90.00;;;;;;4955952;28;20024;-78
2021/04/28 09:14:24;;;;;;;12.75;7.53;;;11.00;88.80;;;;;;4945880;28;20474;-76
2021/04/28 09:16:56;;;;;;;9.60;6.60;;;11.10;87.90;;;;;;4957336;28;20029;-76
2021/04/28 09:19:33;;;;;;;14.13;7.60;;;11.30;87.10;;;;;;4957397;28;20051;-78
2021/04/28 09:22:08;;;;;;;22.48;7.10;;;11.30;87.50;;;;;;4941220;28;20376;-75
2021/04/28 09:24:46;;;;;;;10.75;6.85;;;11.40;88.50;;;;;;4947269;28;20046;-76
2021/04/28 09:27:36;;;;;;;9.57;7.40;;;11.40;87.50;;;;;;4941374;28;20116;-77
2021/04/28 09:30:04;;;;;;;11.07;7.43;;;11.80;87.70;;;;;;4943793;28;20038;-78
2021/04/28 09:32:32;;;;;;;15.95;7.53;;;12.10;84.90;;;;;;4932248;28;20046;-75
2021/04/28 09:35:20;;;;;;;15.25;7.60;;;12.00;86.70;;;;;;4962044;28;20032;-76
2021/04/28 09:38:00;;;;;;;9.90;6.95;;;11.90;83.10;;;;;;4965408;28;20036;-75
2021/04/28 09:40:43;;;;;;;15.55;7.65;;;11.90;83.70;;;;;;4961120;28;20031;-76
2021/04/28 09:43:12;;;;;;;11.80;6.43;;;11.80;84.30;;;;;;4952973;28;20479;-74
2021/04/28 09:45:41;;;;;;;10.15;6.97;;;11.90;82.10;;;;;;4938181;28;20085;-77
2021/04/28 09:48:10;;;;;;;15.13;7.70;;;12.10;81.10;;;;;;4951583;28;20476;-75
2021/04/28 09:50:39;;;;;;;14.02;7.88;;;12.20;79.30;;;;;;4974605;28;20038;-75
2021/04/28 09:53:05;;;;;;;22.65;7.22;;;12.10;78.80;;;;;;4953562;28;20016;-76
2021/04/28 09:55:44;;;;;;;11.85;7.70;;;12.20;78.10;;;;;;4945576;29;20030;-75
2021/04/28 09:58:12;;;;;;;13.63;6.93;;;12.30;77.20;;;;;;4963728;28;20020;-73
2021/04/28 10:00:39;;;;;;;10.77;7.53;;;12.50;77.50;;;;;;4973568;28;20025;-76
2021/04/28 10:03:08;;;;;;;16.42;7.18;;;12.60;76.20;;;;;;5016077;28;20035;-76
2021/04/28 10:05:40;;;;;;;11.98;7.05;;;12.90;75.00;;;;;;4966847;28;20043;-76
2021/04/28 10:08:20;;;;;;;13.95;8.00;;;13.30;75.80;;;;;;4951805;28;20055;-76
2021/04/28 10:10:50;;;;;;;18.70;8.57;;;13.60;72.40;;;;;;4960832;28;20614;-75
2021/04/28 10:13:19;;;;;;;9.90;7.75;;;13.50;70.90;;;;;;4949822;28;20031;-77
2021/04/28 10:15:45;;;;;;;11.57;7.40;;;13.40;71.80;;;;;;4958063;28;20034;-74
2021/04/28 10:18:13;;;;;;;13.80;7.78;;;13.80;71.70;;;;;;4955915;28;20407;-74
2021/04/28 10:20:42;;;;;;;12.13;8.48;;;13.70;70.10;;;;;;4939029;28;20032;-74
2021/04/28 10:23:14;;;;;;;13.32;7.70;;;13.70;70.80;;;;;;4936548;28;20034;-75
2021/04/28 10:25:46;;;;;;;11.43;7.35;;;14.00;70.00;;;;;;4946721;28;20471;-76
2021/04/28 10:28:19;;;;;;;12.43;7.80;;;13.90;70.00;;;;;;4962414;28;20028;-77
2021/04/28 10:30:45;;;;;;;;;;;13.60;69.50;;;;;;4942791;28;20050;-74
2021/04/28 10:33:18;;;;;;;10.82;7.63;;;13.90;71.20;;;;;;4955497;28;19910;-75
2021/04/28 10:35:44;;;;;;;14.63;7.82;;;14.50;68.70;;;;;;4954545;28;20034;-77
2021/04/28 10:38:10;;;;;;;11.13;8.38;;;14.70;67.80;;;;;;4956408;28;20015;-74
2021/04/28 10:40:36;;;;;;;11.43;8.00;;;14.70;68.30;;;;;;4955301;28;20115;-75
2021/04/28 10:43:11;;;;;;;13.50;7.72;;;14.20;67.70;;;;;;4943293;28;20023;-74
2021/04/28 10:45:38;;;;;;;15.48;8.35;;;14.50;67.80;;;;;;4941560;28;20100;-75
2021/04/28 10:48:11;;;;;;;16.98;7.43;;;14.90;67.40;;;;;;4946929;28;20035;-75
2021/04/28 10:50:46;;;;;;;12.57;7.72;;;14.70;67.00;;;;;;4947488;28;20024;-74
2021/04/28 10:53:28;;;;;;;16.23;7.95;;;14.80;66.40;;;;;;4943089;28;20281;-74
2021/04/28 10:55:57;;;;;;;;;;;15.00;66.50;;;;;;4934737;28;20031;-74
2021/04/28 10:58:30;;;;;;;15.73;8.07;;;15.40;67.50;;;;;;4949769;28;19927;-75
2021/04/28 11:00:59;;;;;;;14.40;8.30;;;15.90;65.70;;;;;;4950192;28;20025;-76
2021/04/28 11:03:37;;;;;;;12.98;8.32;;;15.70;63.10;;;;;;4952409;28;20031;-74
2021/04/28 11:06:21;;;;;;;14.10;8.07;;;15.30;64.60;;;;;;4951138;28;20041;-75
2021/04/28 11:09:07;;;;;;;10.63;7.95;;;14.60;66.50;;;;;;4937301;28;20059;-73
2021/04/28 11:11:33;;;;;;;17.55;8.73;;;14.40;67.10;;;;;;4991469;28;20373;-76
2021/04/28 11:14:11;;;;;;;11.73;7.53;;;14.60;67.90;;;;;;4951094;28;20387;-75
2021/04/28 11:16:42;;;;;;;15.15;8.55;;;15.00;67.60;;;;;;4950397;28;20031;-74
2021/04/28 11:19:21;;;;;;;17.05;8.82;;;15.00;66.40;;;;;;4951071;28;20028;-76
2021/04/28 11:22:17;;;;;;;15.75;7.88;;;15.00;66.20;;;;;;4947356;28;20051;-76
2021/04/28 11:25:03;;;;;;;15.18;8.02;;;15.30;64.70;;;;;;4951350;28;20027;-77
2021/04/28 11:27:53;;;;;;;15.20;8.70;;;15.00;63.40;;;;;;4943808;28;20015;-77
2021/04/28 11:30:19;;;;;;;17.95;9.52;;;14.70;64.80;;;;;;4931676;28;20047;-76
2021/04/28 11:33:10;;;;;;;19.75;9.40;;;14.50;65.40;;;;;;4951174;28;20020;-74
2021/04/28 11:35:41;;;;;;;14.00;8.43;;;14.40;65.60;;;;;;4965160;28;20027;-75
2021/04/28 11:38:17;;;;;;;13.65;8.30;;;14.60;64.70;;;;;;4947388;28;20517;-75
2021/04/28 11:41:03;;;;;;;15.75;8.95;;;14.80;64.80;;;;;;4953380;29;20431;-75
2021/04/28 11:43:31;;;;;;;18.48;9.40;;;15.00;64.70;;;;;;4936755;28;20020;-76
2021/04/28 11:46:21;;;;;;;15.90;8.73;;;15.20;63.70;;;;;;4948759;28;20399;-75
2021/04/28 11:48:54;;;;;;;15.02;8.73;;;15.30;63.80;;;;;;4987262;28;20033;-76
2021/04/28 11:51:31;;;;;;;16.15;9.57;;;15.50;64.30;;;;;;4956422;28;20058;-75
2021/04/28 11:53:59;;;;;;;11.40;8.75;;;15.60;63.50;;;;;;5016684;28;20086;-75
2021/04/28 11:56:39;;;;;;;18.30;9.27;;;15.60;63.20;;;;;;4932989;28;20028;-72
2021/04/28 11:59:18;;;;;;;12.48;8.35;;;15.80;63.20;;;;;;4969576;28;20036;-77
2021/04/28 12:01:45;;;;;;;13.68;9.25;;;16.00;63.40;;;;;;4965127;28;20019;-74
2021/04/28 12:04:11;;;;;;;22.65;9.40;;;16.10;63.70;;;;;;4950135;28;20023;-73
2021/04/28 12:06:44;;;;;;;15.95;9.27;;;15.90;63.50;;;;;;4934834;29;20044;-75
2021/04/28 12:09:18;;;;;;;21.02;9.70;;;15.90;61.70;;;;;;4949903;28;20012;-76
2021/04/28 12:11:46;;;;;;;17.80;9.70;;;15.70;62.40;;;;;;4960558;28;20024;-76
2021/04/28 12:14:13;;;;;;;15.07;9.65;;;15.70;62.60;;;;;;4938429;28;20077;-75
2021/04/28 12:16:56;;;;;;;19.25;10.10;;;15.60;61.10;;;;;;4937117;28;20024;-76
2021/04/28 12:19:23;;;;;;;13.75;9.27;;;15.70;60.80;;;;;;4953872;28;20031;-74
2021/04/28 12:22:04;;;;;;;17.10;9.05;;;15.70;61.80;;;;;;4941624;28;20157;-75
2021/04/28 12:24:36;;;;;;;20.27;9.88;;;15.70;63.80;;;;;;4929819;28;20020;-74
2021/04/28 12:27:21;;;;;;;14.65;9.82;;;15.80;63.70;;;;;;4952161;28;20314;-76
2021/04/28 12:29:50;;;;;;;16.90;9.75;;;15.80;64.00;;;;;;4952507;28;20023;-76
2021/04/28 12:32:17;;;;;;;15.23;10.05;;;15.90;63.30;;;;;;4946080;28;20019;-71
2021/04/28 12:34:46;;;;;;;19.17;10.10;;;16.10;63.50;;;;;;4971300;28;20028;-76
2021/04/28 12:37:16;;;;;;;14.90;10.35;;;16.20;62.40;;;;;;4984655;28;20043;-75
2021/04/28 12:39:52;;;;;;;19.40;10.30;;;16.20;62.40;;;;;;4970151;28;20032;-78
2021/04/28 12:42:31;;;;;;;18.27;10.13;;;16.20;61.70;;;;;;4954053;28;20024;-75
2021/04/28 12:44:59;;;;;;;15.00;9.63;;;16.20;62.50;;;;;;4991329;28;20509;-75
2021/04/28 12:47:31;;;;;;;20.35;10.15;;;16.10;63.10;;;;;;5006876;28;20032;-75
2021/04/28 12:50:20;;;;;;;22.83;11.25;;;16.30;62.80;;;;;;4950617;28;20031;-75
2021/04/28 12:52:46;;;;;;;25.50;10.43;;;16.60;61.50;;;;;;4942577;28;20062;-76
2021/04/28 12:55:31;;;;;;;18.10;10.93;;;16.60;61.00;;;;;;4987496;28;20021;-77
2021/04/28 12:58:05;;;;;;;16.02;10.32;;;16.40;61.90;;;;;;4966729;28;20107;-77